sensor_id;sensor_type;location;lat;lon;timestamp;P1;durP1;ratioP1;P2;durP2;ratioP2
5553;SDS011;2800;49.528;8.666;2022-12-18T00:01:57;82.57;;;42.90;;
5553;SDS011;2800;49.528;8.666;2022-12-18T00:04:26;82.30;;;41.92;;
5553;SDS011;2800;49.528;8.666;2022-12-18T00:06:52;85.95;;;43.85;;
5553;SDS011;2800;49.528;8.666;2022-12-18T00:09:18;80.33;;;41.97;;
5553;SDS011;2800;49.528;8.666;2022-12-18T00:11:43;83.67;;;42.07;;
5553;SDS011;2800;49.528;8.666;2022-12-18T00:14:10;78.50;;;39.70;;
5553;SDS011;2800;49.528;8.666;2022-12-18T00:16:37;79.15;;;41.22;;
5553;SDS011;2800;49.528;8.666;2022-12-18T00:19:03;84.00;;;39.93;;
5553;SDS011;2800;49.528;8.666;2022-12-18T00:21:29;80.57;;;42.40;;
5553;SDS011;2800;49.528;8.666;2022-12-18T00:23:56;82.80;;;41.30;;
5553;SDS011;2800;49.528;8.666;2022-12-18T00:26:23;77.78;;;39.65;;
5553;SDS011;2800;49.528;8.666;2022-12-18T00:28:54;85.65;;;42.40;;
5553;SDS011;2800;49.528;8.666;2022-12-18T00:31:22;83.72;;;41.30;;
5553;SDS011;2800;49.528;8.666;2022-12-18T00:33:49;85.00;;;42.35;;
5553;SDS011;2800;49.528;8.666;2022-12-18T00:36:16;86.22;;;41.75;;
5553;SDS011;2800;49.528;8.666;2022-12-18T00:38:44;88.90;;;43.72;;
5553;SDS011;2800;49.528;8.666;2022-12-18T00:41:10;84.38;;;40.38;;
5553;SDS011;2800;49.528;8.666;2022-12-18T00:43:37;79.28;;;40.38;;
5553;SDS011;2800;49.528;8.666;2022-12-18T00:46:03;81.50;;;41.73;;
5553;SDS011;2800;49.528;8.666;2022-12-18T00:48:29;87.97;;;42.05;;
5553;SDS011;2800;49.528;8.666;2022-12-18T00:50:55;80.47;;;43.00;;
5553;SDS011;2800;49.528;8.666;2022-12-18T00:53:21;90.30;;;44.00;;
5553;SDS011;2800;49.528;8.666;2022-12-18T00:55:46;83.97;;;41.57;;
5553;SDS011;2800;49.528;8.666;2022-12-18T00:58:12;86.70;;;40.90;;
5553;SDS011;2800;49.528;8.666;2022-12-18T01:00:39;82.90;;;41.50;;
5553;SDS011;2800;49.528;8.666;2022-12-18T01:03:05;91.13;;;41.58;;
5553;SDS011;2800;49.528;8.666;2022-12-18T01:05:31;70.60;;;38.50;;
5553;SDS011;2800;49.528;8.666;2022-12-18T01:07:58;72.32;;;38.63;;
5553;SDS011;2800;49.528;8.666;2022-12-18T01:10:24;79.30;;;39.40;;
5553;SDS011;2800;49.528;8.666;2022-12-18T01:12:49;71.13;;;37.17;;
5553;SDS011;2800;49.528;8.666;2022-12-18T01:15:15;66.28;;;36.22;;
5553;SDS011;2800;49.528;8.666;2022-12-18T01:17:42;77.50;;;37.78;;
5553;SDS011;2800;49.528;8.666;2022-12-18T01:20:08;75.07;;;37.90;;
5553;SDS011;2800;49.528;8.666;2022-12-18T01:22:35;74.15;;;37.42;;
5553;SDS011;2800;49.528;8.666;2022-12-18T01:25:01;66.13;;;34.88;;
5553;SDS011;2800;49.528;8.666;2022-12-18T01:27:27;63.60;;;34.67;;
5553;SDS011;2800;49.528;8.666;2022-12-18T01:29:52;67.77;;;35.73;;
5553;SDS011;2800;49.528;8.666;2022-12-18T01:32:18;65.93;;;35.40;;
5553;SDS011;2800;49.528;8.666;2022-12-18T01:34:44;67.25;;;36.53;;
5553;SDS011;2800;49.528;8.666;2022-12-18T01:37:09;72.43;;;36.40;;
5553;SDS011;2800;49.528;8.666;2022-12-18T01:39:35;83.00;;;38.63;;
5553;SDS011;2800;49.528;8.666;2022-12-18T01:42:05;68.33;;;36.80;;
5553;SDS011;2800;49.528;8.666;2022-12-18T01:44:50;75.50;;;37.58;;
5553;SDS011;2800;49.528;8.666;2022-12-18T01:47:28;76.15;;;36.83;;
5553;SDS011;2800;49.528;8.666;2022-12-18T01:50:02;74.97;;;37.50;;
5553;SDS011;2800;49.528;8.666;2022-12-18T01:52:33;75.75;;;39.53;;
5553;SDS011;2800;49.528;8.666;2022-12-18T01:54:59;74.38;;;37.17;;
5553;SDS011;2800;49.528;8.666;2022-12-18T01:57:27;69.50;;;35.70;;
5553;SDS011;2800;49.528;8.666;2022-12-18T01:59:55;73.15;;;37.97;;
5553;SDS011;2800;49.528;8.666;2022-12-18T02:02:24;77.75;;;37.25;;
5553;SDS011;2800;49.528;8.666;2022-12-18T02:04:54;73.10;;;37.63;;
5553;SDS011;2800;49.528;8.666;2022-12-18T02:07:23;68.43;;;37.20;;
5553;SDS011;2800;49.528;8.666;2022-12-18T02:12:52;83.15;;;38.40;;
5553;SDS011;2800;49.528;8.666;2022-12-18T02:15:33;76.38;;;37.95;;
5553;SDS011;2800;49.528;8.666;2022-12-18T02:18:19;68.35;;;35.30;;
5553;SDS011;2800;49.528;8.666;2022-12-18T02:20:49;76.47;;;36.78;;
5553;SDS011;2800;49.528;8.666;2022-12-18T02:26:31;72.18;;;39.88;;
5553;SDS011;2800;49.528;8.666;2022-12-18T02:29:22;82.35;;;40.55;;
5553;SDS011;2800;49.528;8.666;2022-12-18T02:31:52;79.90;;;39.50;;
5553;SDS011;2800;49.528;8.666;2022-12-18T02:34:22;77.97;;;38.25;;
5553;SDS011;2800;49.528;8.666;2022-12-18T02:36:51;76.15;;;39.08;;
5553;SDS011;2800;49.528;8.666;2022-12-18T02:39:19;87.03;;;44.72;;
5553;SDS011;2800;49.528;8.666;2022-12-18T02:41:47;71.32;;;38.63;;
5553;SDS011;2800;49.528;8.666;2022-12-18T02:44:13;76.07;;;39.10;;
5553;SDS011;2800;49.528;8.666;2022-12-18T02:46:40;101.88;;;46.63;;
5553;SDS011;2800;49.528;8.666;2022-12-18T02:49:21;86.20;;;42.25;;
5553;SDS011;2800;49.528;8.666;2022-12-18T02:51:58;86.00;;;40.10;;
5553;SDS011;2800;49.528;8.666;2022-12-18T02:54:47;83.43;;;39.80;;
5553;SDS011;2800;49.528;8.666;2022-12-18T02:57:39;74.70;;;38.13;;
5553;SDS011;2800;49.528;8.666;2022-12-18T03:00:52;74.57;;;40.00;;
5553;SDS011;2800;49.528;8.666;2022-12-18T03:03:11;68.05;;;33.20;;
5553;SDS011;2800;49.528;8.666;2022-12-18T03:08:17;66.93;;;33.85;;
5553;SDS011;2800;49.528;8.666;2022-12-18T03:10:51;65.78;;;32.97;;
5553;SDS011;2800;49.528;8.666;2022-12-18T03:16:18;73.53;;;36.60;;
5553;SDS011;2800;49.528;8.666;2022-12-18T03:19:11;70.22;;;36.00;;
5553;SDS011;2800;49.528;8.666;2022-12-18T03:21:42;74.95;;;35.80;;
5553;SDS011;2800;49.528;8.666;2022-12-18T03:24:12;71.10;;;35.97;;
5553;SDS011;2800;49.528;8.666;2022-12-18T03:26:40;74.95;;;38.22;;
5553;SDS011;2800;49.528;8.666;2022-12-18T03:29:12;76.85;;;37.65;;
5553;SDS011;2800;49.528;8.666;2022-12-18T03:31:47;75.50;;;37.65;;
5553;SDS011;2800;49.528;8.666;2022-12-18T03:34:29;70.47;;;35.50;;
5553;SDS011;2800;49.528;8.666;2022-12-18T03:36:56;70.82;;;35.25;;
5553;SDS011;2800;49.528;8.666;2022-12-18T03:39:22;69.87;;;36.07;;
5553;SDS011;2800;49.528;8.666;2022-12-18T03:41:54;70.57;;;35.88;;
5553;SDS011;2800;49.528;8.666;2022-12-18T03:44:35;72.70;;;35.67;;
5553;SDS011;2800;49.528;8.666;2022-12-18T03:47:15;77.50;;;38.83;;
5553;SDS011;2800;49.528;8.666;2022-12-18T03:52:26;70.93;;;34.80;;
5553;SDS011;2800;49.528;8.666;2022-12-18T03:54:58;77.70;;;37.75;;
5553;SDS011;2800;49.528;8.666;2022-12-18T03:57:26;72.35;;;37.22;;
5553;SDS011;2800;49.528;8.666;2022-12-18T03:59:54;72.57;;;36.00;;
5553;SDS011;2800;49.528;8.666;2022-12-18T04:02:22;73.82;;;38.22;;
5553;SDS011;2800;49.528;8.666;2022-12-18T04:04:50;76.55;;;37.80;;
5553;SDS011;2800;49.528;8.666;2022-12-18T04:07:18;76.53;;;37.05;;
5553;SDS011;2800;49.528;8.666;2022-12-18T04:09:45;67.55;;;36.50;;
5553;SDS011;2800;49.528;8.666;2022-12-18T04:12:13;82.13;;;38.40;;
5553;SDS011;2800;49.528;8.666;2022-12-18T04:14:38;68.80;;;35.57;;
5553;SDS011;2800;49.528;8.666;2022-12-18T04:17:04;67.30;;;36.70;;
5553;SDS011;2800;49.528;8.666;2022-12-18T04:19:30;74.27;;;35.63;;
5553;SDS011;2800;49.528;8.666;2022-12-18T04:21:55;79.63;;;37.90;;
5553;SDS011;2800;49.528;8.666;2022-12-18T04:24:21;74.47;;;37.37;;
5553;SDS011;2800;49.528;8.666;2022-12-18T04:26:46;83.13;;;37.10;;
5553;SDS011;2800;49.528;8.666;2022-12-18T04:29:12;129.90;;;37.20;;
5553;SDS011;2800;49.528;8.666;2022-12-18T04:31:37;96.33;;;39.23;;
5553;SDS011;2800;49.528;8.666;2022-12-18T04:34:03;104.93;;;37.73;;
5553;SDS011;2800;49.528;8.666;2022-12-18T04:36:29;78.97;;;37.47;;
5553;SDS011;2800;49.528;8.666;2022-12-18T04:38:54;74.60;;;38.13;;
5553;SDS011;2800;49.528;8.666;2022-12-18T04:41:20;82.77;;;40.33;;
5553;SDS011;2800;49.528;8.666;2022-12-18T04:43:46;81.37;;;38.10;;
5553;SDS011;2800;49.528;8.666;2022-12-18T04:46:11;157.37;;;40.20;;
5553;SDS011;2800;49.528;8.666;2022-12-18T04:48:37;83.53;;;37.23;;
5553;SDS011;2800;49.528;8.666;2022-12-18T04:51:03;71.20;;;36.50;;
5553;SDS011;2800;49.528;8.666;2022-12-18T04:53:29;80.90;;;38.40;;
5553;SDS011;2800;49.528;8.666;2022-12-18T04:56:04;79.57;;;40.50;;
5553;SDS011;2800;49.528;8.666;2022-12-18T04:58:37;77.40;;;38.03;;
5553;SDS011;2800;49.528;8.666;2022-12-18T05:01:04;80.90;;;37.65;;
5553;SDS011;2800;49.528;8.666;2022-12-18T05:03:30;76.90;;;37.90;;
5553;SDS011;2800;49.528;8.666;2022-12-18T05:05:56;75.30;;;36.20;;
5553;SDS011;2800;49.528;8.666;2022-12-18T05:08:22;73.30;;;36.33;;
5553;SDS011;2800;49.528;8.666;2022-12-18T05:10:48;78.32;;;35.83;;
5553;SDS011;2800;49.528;8.666;2022-12-18T05:13:13;76.80;;;37.10;;
5553;SDS011;2800;49.528;8.666;2022-12-18T05:15:39;79.53;;;38.50;;
5553;SDS011;2800;49.528;8.666;2022-12-18T05:18:04;74.57;;;35.70;;
5553;SDS011;2800;49.528;8.666;2022-12-18T05:20:30;72.67;;;35.40;;
5553;SDS011;2800;49.528;8.666;2022-12-18T05:22:56;74.90;;;36.73;;
5553;SDS011;2800;49.528;8.666;2022-12-18T05:25:22;74.87;;;37.13;;
5553;SDS011;2800;49.528;8.666;2022-12-18T05:27:48;87.60;;;37.67;;
5553;SDS011;2800;49.528;8.666;2022-12-18T05:30:14;92.33;;;41.10;;
5553;SDS011;2800;49.528;8.666;2022-12-18T05:32:40;96.10;;;44.25;;
5553;SDS011;2800;49.528;8.666;2022-12-18T05:35:06;90.53;;;44.10;;
5553;SDS011;2800;49.528;8.666;2022-12-18T05:37:33;88.40;;;39.75;;
5553;SDS011;2800;49.528;8.666;2022-12-18T05:39:59;77.20;;;38.75;;
5553;SDS011;2800;49.528;8.666;2022-12-18T05:42:25;76.80;;;36.93;;
5553;SDS011;2800;49.528;8.666;2022-12-18T05:44:51;78.23;;;39.00;;
5553;SDS011;2800;49.528;8.666;2022-12-18T05:47:16;87.73;;;38.80;;
5553;SDS011;2800;49.528;8.666;2022-12-18T05:49:42;75.40;;;37.40;;
5553;SDS011;2800;49.528;8.666;2022-12-18T05:52:08;196.57;;;39.70;;
5553;SDS011;2800;49.528;8.666;2022-12-18T05:54:33;79.87;;;37.60;;
5553;SDS011;2800;49.528;8.666;2022-12-18T05:56:59;95.63;;;37.73;;
5553;SDS011;2800;49.528;8.666;2022-12-18T05:59:25;114.40;;;37.33;;
5553;SDS011;2800;49.528;8.666;2022-12-18T06:01:50;146.67;;;38.60;;
5553;SDS011;2800;49.528;8.666;2022-12-18T06:04:16;121.83;;;39.30;;
5553;SDS011;2800;49.528;8.666;2022-12-18T06:06:41;103.30;;;45.10;;
5553;SDS011;2800;49.528;8.666;2022-12-18T06:09:07;102.00;;;42.97;;
5553;SDS011;2800;49.528;8.666;2022-12-18T06:11:35;86.57;;;40.33;;
5553;SDS011;2800;49.528;8.666;2022-12-18T06:14:01;269.02;;;42.20;;
5553;SDS011;2800;49.528;8.666;2022-12-18T06:16:28;81.38;;;40.58;;
5553;SDS011;2800;49.528;8.666;2022-12-18T06:18:58;324.08;;;39.90;;
5553;SDS011;2800;49.528;8.666;2022-12-18T06:21:24;99.38;;;37.17;;
5553;SDS011;2800;49.528;8.666;2022-12-18T06:23:50;132.68;;;41.13;;
5553;SDS011;2800;49.528;8.666;2022-12-18T06:26:16;90.50;;;38.40;;
5553;SDS011;2800;49.528;8.666;2022-12-18T06:28:41;123.53;;;39.57;;
5553;SDS011;2800;49.528;8.666;2022-12-18T06:31:07;84.20;;;38.10;;
5553;SDS011;2800;49.528;8.666;2022-12-18T06:33:34;204.88;;;40.90;;
5553;SDS011;2800;49.528;8.666;2022-12-18T06:36:00;80.37;;;39.10;;
5553;SDS011;2800;49.528;8.666;2022-12-18T06:38:28;187.20;;;41.50;;
5553;SDS011;2800;49.528;8.666;2022-12-18T06:40:53;96.50;;;38.63;;
5553;SDS011;2800;49.528;8.666;2022-12-18T06:43:19;81.43;;;37.73;;
5553;SDS011;2800;49.528;8.666;2022-12-18T06:45:44;91.30;;;38.70;;
5553;SDS011;2800;49.528;8.666;2022-12-18T06:48:11;247.40;;;40.78;;
5553;SDS011;2800;49.528;8.666;2022-12-18T06:50:36;109.93;;;38.70;;
5553;SDS011;2800;49.528;8.666;2022-12-18T06:53:02;85.30;;;39.73;;
5553;SDS011;2800;49.528;8.666;2022-12-18T06:55:27;85.73;;;38.60;;
5553;SDS011;2800;49.528;8.666;2022-12-18T06:57:53;86.27;;;39.10;;
5553;SDS011;2800;49.528;8.666;2022-12-18T07:00:18;92.83;;;42.13;;
5553;SDS011;2800;49.528;8.666;2022-12-18T07:02:44;90.13;;;40.37;;
5553;SDS011;2800;49.528;8.666;2022-12-18T07:05:09;109.80;;;40.60;;
5553;SDS011;2800;49.528;8.666;2022-12-18T07:07:35;85.47;;;39.20;;
5553;SDS011;2800;49.528;8.666;2022-12-18T07:10:00;90.20;;;40.40;;
5553;SDS011;2800;49.528;8.666;2022-12-18T07:12:28;194.30;;;41.27;;
5553;SDS011;2800;49.528;8.666;2022-12-18T07:14:54;123.20;;;40.75;;
5553;SDS011;2800;49.528;8.666;2022-12-18T07:17:19;92.97;;;41.40;;
5553;SDS011;2800;49.528;8.666;2022-12-18T07:19:45;91.93;;;37.40;;
5553;SDS011;2800;49.528;8.666;2022-12-18T07:22:10;81.80;;;38.07;;
5553;SDS011;2800;49.528;8.666;2022-12-18T07:24:36;87.03;;;39.80;;
5553;SDS011;2800;49.528;8.666;2022-12-18T07:27:01;101.13;;;40.03;;
5553;SDS011;2800;49.528;8.666;2022-12-18T07:29:27;161.37;;;40.00;;
5553;SDS011;2800;49.528;8.666;2022-12-18T07:31:53;109.13;;;39.75;;
5553;SDS011;2800;49.528;8.666;2022-12-18T07:34:18;89.67;;;37.73;;
5553;SDS011;2800;49.528;8.666;2022-12-18T07:36:44;86.90;;;37.20;;
5553;SDS011;2800;49.528;8.666;2022-12-18T07:39:12;71.90;;;35.50;;
5553;SDS011;2800;49.528;8.666;2022-12-18T07:41:38;73.03;;;34.95;;
5553;SDS011;2800;49.528;8.666;2022-12-18T07:44:08;83.60;;;34.17;;
5553;SDS011;2800;49.528;8.666;2022-12-18T07:46:35;72.78;;;36.03;;
5553;SDS011;2800;49.528;8.666;2022-12-18T07:49:00;69.87;;;35.77;;
5553;SDS011;2800;49.528;8.666;2022-12-18T07:51:26;77.33;;;34.47;;
5553;SDS011;2800;49.528;8.666;2022-12-18T07:53:51;69.77;;;34.77;;
5553;SDS011;2800;49.528;8.666;2022-12-18T07:56:17;71.17;;;33.83;;
5553;SDS011;2800;49.528;8.666;2022-12-18T07:58:42;71.43;;;34.77;;
5553;SDS011;2800;49.528;8.666;2022-12-18T08:01:10;71.80;;;36.03;;
5553;SDS011;2800;49.528;8.666;2022-12-18T08:03:37;66.93;;;35.78;;
5553;SDS011;2800;49.528;8.666;2022-12-18T08:06:03;73.15;;;35.55;;
5553;SDS011;2800;49.528;8.666;2022-12-18T08:08:32;65.75;;;33.45;;
5553;SDS011;2800;49.528;8.666;2022-12-18T08:10:58;68.65;;;34.22;;
5553;SDS011;2800;49.528;8.666;2022-12-18T08:13:24;65.47;;;33.73;;
5553;SDS011;2800;49.528;8.666;2022-12-18T08:16:00;63.58;;;32.60;;
5553;SDS011;2800;49.528;8.666;2022-12-18T08:18:27;82.68;;;37.55;;
5553;SDS011;2800;49.528;8.666;2022-12-18T08:20:53;71.45;;;39.25;;
5553;SDS011;2800;49.528;8.666;2022-12-18T08:23:19;78.80;;;37.55;;
5553;SDS011;2800;49.528;8.666;2022-12-18T08:25:45;78.13;;;37.73;;
5553;SDS011;2800;49.528;8.666;2022-12-18T08:28:11;84.57;;;37.73;;
5553;SDS011;2800;49.528;8.666;2022-12-18T08:30:36;183.90;;;36.80;;
5553;SDS011;2800;49.528;8.666;2022-12-18T08:33:02;82.57;;;36.27;;
5553;SDS011;2800;49.528;8.666;2022-12-18T08:35:27;69.00;;;34.63;;
5553;SDS011;2800;49.528;8.666;2022-12-18T08:37:53;73.67;;;37.33;;
5553;SDS011;2800;49.528;8.666;2022-12-18T08:40:18;69.87;;;36.73;;
5553;SDS011;2800;49.528;8.666;2022-12-18T08:42:44;78.27;;;38.83;;
5553;SDS011;2800;49.528;8.666;2022-12-18T08:45:28;73.72;;;36.38;;
5553;SDS011;2800;49.528;8.666;2022-12-18T08:47:53;76.27;;;37.50;;
5553;SDS011;2800;49.528;8.666;2022-12-18T08:50:19;70.53;;;38.67;;
5553;SDS011;2800;49.528;8.666;2022-12-18T08:52:45;66.03;;;39.23;;
5553;SDS011;2800;49.528;8.666;2022-12-18T08:55:10;64.00;;;38.83;;
5553;SDS011;2800;49.528;8.666;2022-12-18T08:57:36;69.05;;;39.05;;
5553;SDS011;2800;49.528;8.666;2022-12-18T09:00:02;66.30;;;42.10;;
5553;SDS011;2800;49.528;8.666;2022-12-18T09:02:28;78.15;;;44.85;;
5553;SDS011;2800;49.528;8.666;2022-12-18T09:04:54;67.73;;;40.43;;
5553;SDS011;2800;49.528;8.666;2022-12-18T09:07:19;66.60;;;37.67;;
5553;SDS011;2800;49.528;8.666;2022-12-18T09:09:45;63.97;;;35.07;;
5553;SDS011;2800;49.528;8.666;2022-12-18T09:12:10;67.80;;;38.40;;
5553;SDS011;2800;49.528;8.666;2022-12-18T09:14:36;64.70;;;37.83;;
5553;SDS011;2800;49.528;8.666;2022-12-18T09:17:01;64.47;;;39.30;;
5553;SDS011;2800;49.528;8.666;2022-12-18T09:19:27;66.83;;;39.60;;
5553;SDS011;2800;49.528;8.666;2022-12-18T09:21:52;68.37;;;38.90;;
5553;SDS011;2800;49.528;8.666;2022-12-18T09:24:18;64.67;;;37.60;;
5553;SDS011;2800;49.528;8.666;2022-12-18T09:26:43;74.70;;;40.00;;
5553;SDS011;2800;49.528;8.666;2022-12-18T09:29:09;72.17;;;42.67;;
5553;SDS011;2800;49.528;8.666;2022-12-18T09:31:35;70.10;;;41.73;;
5553;SDS011;2800;49.528;8.666;2022-12-18T09:34:01;69.70;;;43.25;;
5553;SDS011;2800;49.528;8.666;2022-12-18T09:36:26;74.13;;;49.33;;
5553;SDS011;2800;49.528;8.666;2022-12-18T09:38:52;74.60;;;48.40;;
5553;SDS011;2800;49.528;8.666;2022-12-18T09:43:50;78.80;;;44.58;;
5553;SDS011;2800;49.528;8.666;2022-12-18T09:46:24;88.13;;;53.80;;
5553;SDS011;2800;49.528;8.666;2022-12-18T09:48:54;86.28;;;50.47;;
5553;SDS011;2800;49.528;8.666;2022-12-18T09:51:26;80.93;;;47.55;;
5553;SDS011;2800;49.528;8.666;2022-12-18T09:54:13;74.13;;;45.22;;
5553;SDS011;2800;49.528;8.666;2022-12-18T09:56:45;75.57;;;42.30;;
5553;SDS011;2800;49.528;8.666;2022-12-18T09:59:18;73.30;;;43.63;;
5553;SDS011;2800;49.528;8.666;2022-12-18T10:01:54;70.13;;;47.20;;
5553;SDS011;2800;49.528;8.666;2022-12-18T10:04:20;71.30;;;45.53;;
5553;SDS011;2800;49.528;8.666;2022-12-18T10:06:48;68.27;;;43.20;;
5553;SDS011;2800;49.528;8.666;2022-12-18T10:14:41;72.35;;;45.38;;
5553;SDS011;2800;49.528;8.666;2022-12-18T10:20:01;70.18;;;42.83;;
5553;SDS011;2800;49.528;8.666;2022-12-18T10:22:38;79.03;;;48.97;;
5553;SDS011;2800;49.528;8.666;2022-12-18T10:25:25;82.03;;;50.63;;
5553;SDS011;2800;49.528;8.666;2022-12-18T10:28:15;82.45;;;50.15;;
5553;SDS011;2800;49.528;8.666;2022-12-18T10:30:43;75.55;;;45.72;;
5553;SDS011;2800;49.528;8.666;2022-12-18T10:33:16;72.37;;;45.40;;
5553;SDS011;2800;49.528;8.666;2022-12-18T10:35:44;80.80;;;49.38;;
5553;SDS011;2800;49.528;8.666;2022-12-18T10:48:27;63.10;;;41.25;;
5553;SDS011;2800;49.528;8.666;2022-12-18T10:50:54;60.67;;;42.30;;
5553;SDS011;2800;49.528;8.666;2022-12-18T10:53:22;67.07;;;43.67;;
5553;SDS011;2800;49.528;8.666;2022-12-18T10:55:53;67.40;;;44.55;;
5553;SDS011;2800;49.528;8.666;2022-12-18T10:58:22;66.32;;;43.65;;
5553;SDS011;2800;49.528;8.666;2022-12-18T11:03:44;69.03;;;45.03;;
5553;SDS011;2800;49.528;8.666;2022-12-18T11:06:20;72.53;;;48.60;;
5553;SDS011;2800;49.528;8.666;2022-12-18T11:08:59;59.67;;;43.53;;
5553;SDS011;2800;49.528;8.666;2022-12-18T11:11:51;64.07;;;43.20;;
5553;SDS011;2800;49.528;8.666;2022-12-18T11:14:21;69.32;;;44.90;;
5553;SDS011;2800;49.528;8.666;2022-12-18T11:16:49;74.20;;;51.73;;
5553;SDS011;2800;49.528;8.666;2022-12-18T11:21:59;59.00;;;39.40;;
5553;SDS011;2800;49.528;8.666;2022-12-18T11:24:33;61.57;;;42.43;;
5553;SDS011;2800;49.528;8.666;2022-12-18T11:27:01;59.97;;;42.80;;
5553;SDS011;2800;49.528;8.666;2022-12-18T11:29:31;62.60;;;43.60;;
5553;SDS011;2800;49.528;8.666;2022-12-18T11:32:24;57.00;;;41.77;;
5553;SDS011;2800;49.528;8.666;2022-12-18T11:37:43;63.38;;;45.08;;
5553;SDS011;2800;49.528;8.666;2022-12-18T11:40:19;63.37;;;44.60;;
5553;SDS011;2800;49.528;8.666;2022-12-18T11:42:58;60.72;;;41.08;;
5553;SDS011;2800;49.528;8.666;2022-12-18T11:45:34;59.67;;;43.83;;
5553;SDS011;2800;49.528;8.666;2022-12-18T11:50:55;63.80;;;45.50;;
5553;SDS011;2800;49.528;8.666;2022-12-18T11:53:24;69.40;;;47.03;;
5553;SDS011;2800;49.528;8.666;2022-12-18T11:56:11;62.93;;;46.57;;
5553;SDS011;2800;49.528;8.666;2022-12-18T11:59:09;66.17;;;45.50;;
5553;SDS011;2800;49.528;8.666;2022-12-18T12:02:24;63.00;;;43.30;;
5553;SDS011;2800;49.528;8.666;2022-12-18T12:05:00;76.22;;;53.83;;
5553;SDS011;2800;49.528;8.666;2022-12-18T12:08:03;65.30;;;46.33;;
5553;SDS011;2800;49.528;8.666;2022-12-18T12:10:58;73.73;;;51.53;;
5553;SDS011;2800;49.528;8.666;2022-12-18T12:14:01;70.67;;;50.60;;
5553;SDS011;2800;49.528;8.666;2022-12-18T12:19:44;59.20;;;41.33;;
5553;SDS011;2800;49.528;8.666;2022-12-18T12:22:44;68.30;;;46.55;;
5553;SDS011;2800;49.528;8.666;2022-12-18T12:25:30;84.13;;;59.78;;
5553;SDS011;2800;49.528;8.666;2022-12-18T12:33:28;65.10;;;47.47;;
5553;SDS011;2800;49.528;8.666;2022-12-18T12:38:47;76.10;;;48.05;;
5553;SDS011;2800;49.528;8.666;2022-12-18T12:41:17;67.78;;;44.35;;
5553;SDS011;2800;49.528;8.666;2022-12-18T12:44:09;68.75;;;42.50;;
5553;SDS011;2800;49.528;8.666;2022-12-18T12:46:41;67.82;;;45.28;;
5553;SDS011;2800;49.528;8.666;2022-12-18T12:49:15;75.15;;;51.03;;
5553;SDS011;2800;49.528;8.666;2022-12-18T12:51:50;83.70;;;55.75;;
5553;SDS011;2800;49.528;8.666;2022-12-18T12:54:24;64.35;;;44.28;;
5553;SDS011;2800;49.528;8.666;2022-12-18T12:59:48;69.93;;;44.47;;
5553;SDS011;2800;49.528;8.666;2022-12-18T13:08:12;82.53;;;51.50;;
5553;SDS011;2800;49.528;8.666;2022-12-18T13:10:48;75.47;;;47.45;;
5553;SDS011;2800;49.528;8.666;2022-12-18T13:13:14;83.00;;;54.70;;
5553;SDS011;2800;49.528;8.666;2022-12-18T13:20:38;74.32;;;47.72;;
5553;SDS011;2800;49.528;8.666;2022-12-18T13:23:32;67.80;;;42.88;;
5553;SDS011;2800;49.528;8.666;2022-12-18T13:30:58;71.27;;;46.80;;
5553;SDS011;2800;49.528;8.666;2022-12-18T13:35:52;74.35;;;48.30;;
5553;SDS011;2800;49.528;8.666;2022-12-18T13:41:01;80.03;;;50.75;;
5553;SDS011;2800;49.528;8.666;2022-12-18T13:49:02;78.30;;;51.45;;
5553;SDS011;2800;49.528;8.666;2022-12-18T13:51:52;84.13;;;49.58;;
5553;SDS011;2800;49.528;8.666;2022-12-18T13:54:29;76.50;;;49.30;;
5553;SDS011;2800;49.528;8.666;2022-12-18T13:56:59;77.50;;;48.28;;
5553;SDS011;2800;49.528;8.666;2022-12-18T13:59:26;77.03;;;48.80;;
5553;SDS011;2800;49.528;8.666;2022-12-18T14:02:00;87.53;;;50.47;;
5553;SDS011;2800;49.528;8.666;2022-12-18T14:04:35;81.50;;;50.88;;
5553;SDS011;2800;49.528;8.666;2022-12-18T14:07:07;76.85;;;47.63;;
5553;SDS011;2800;49.528;8.666;2022-12-18T14:09:52;75.85;;;48.47;;
5553;SDS011;2800;49.528;8.666;2022-12-18T14:12:26;85.93;;;48.95;;
5553;SDS011;2800;49.528;8.666;2022-12-18T14:15:19;84.53;;;50.25;;
5553;SDS011;2800;49.528;8.666;2022-12-18T14:17:50;90.90;;;54.22;;
5553;SDS011;2800;49.528;8.666;2022-12-18T14:20:18;72.65;;;45.00;;
5553;SDS011;2800;49.528;8.666;2022-12-18T14:22:45;75.20;;;46.85;;
5553;SDS011;2800;49.528;8.666;2022-12-18T14:27:49;70.55;;;44.38;;
5553;SDS011;2800;49.528;8.666;2022-12-18T14:30:27;76.72;;;46.65;;
5553;SDS011;2800;49.528;8.666;2022-12-18T14:32:59;110.32;;;59.92;;
5553;SDS011;2800;49.528;8.666;2022-12-18T14:35:29;97.38;;;54.90;;
5553;SDS011;2800;49.528;8.666;2022-12-18T14:38:08;72.07;;;44.37;;
5553;SDS011;2800;49.528;8.666;2022-12-18T14:40:34;79.15;;;48.15;;
5553;SDS011;2800;49.528;8.666;2022-12-18T14:42:59;80.07;;;46.87;;
5553;SDS011;2800;49.528;8.666;2022-12-18T14:45:41;77.00;;;47.23;;
5553;SDS011;2800;49.528;8.666;2022-12-18T14:48:08;78.40;;;48.22;;
5553;SDS011;2800;49.528;8.666;2022-12-18T14:50:37;77.32;;;47.00;;
5553;SDS011;2800;49.528;8.666;2022-12-18T14:53:03;76.50;;;47.50;;
5553;SDS011;2800;49.528;8.666;2022-12-18T14:55:31;78.47;;;46.22;;
5553;SDS011;2800;49.528;8.666;2022-12-18T14:57:57;77.20;;;47.13;;
5553;SDS011;2800;49.528;8.666;2022-12-18T15:00:23;76.03;;;47.07;;
5553;SDS011;2800;49.528;8.666;2022-12-18T15:02:52;80.97;;;49.50;;
5553;SDS011;2800;49.528;8.666;2022-12-18T15:05:21;84.35;;;49.47;;
5553;SDS011;2800;49.528;8.666;2022-12-18T15:07:57;90.13;;;53.38;;
5553;SDS011;2800;49.528;8.666;2022-12-18T15:10:25;91.53;;;56.25;;
5553;SDS011;2800;49.528;8.666;2022-12-18T15:20:41;90.03;;;55.00;;
5553;SDS011;2800;49.528;8.666;2022-12-18T15:23:30;89.80;;;54.67;;
5553;SDS011;2800;49.528;8.666;2022-12-18T15:28:51;83.95;;;52.45;;
5553;SDS011;2800;49.528;8.666;2022-12-18T15:31:24;88.35;;;53.65;;
5553;SDS011;2800;49.528;8.666;2022-12-18T15:36:20;89.33;;;53.10;;
5553;SDS011;2800;49.528;8.666;2022-12-18T15:38:49;87.75;;;50.30;;
5553;SDS011;2800;49.528;8.666;2022-12-18T15:41:16;79.30;;;49.78;;
5553;SDS011;2800;49.528;8.666;2022-12-18T15:43:43;82.65;;;49.83;;
5553;SDS011;2800;49.528;8.666;2022-12-18T15:46:14;93.57;;;52.80;;
5553;SDS011;2800;49.528;8.666;2022-12-18T15:48:43;84.75;;;51.35;;
5553;SDS011;2800;49.528;8.666;2022-12-18T15:53:45;76.70;;;47.80;;
5553;SDS011;2800;49.528;8.666;2022-12-18T15:56:14;82.63;;;50.35;;
5553;SDS011;2800;49.528;8.666;2022-12-18T15:58:58;87.90;;;50.70;;
5553;SDS011;2800;49.528;8.666;2022-12-18T16:01:25;92.07;;;53.67;;
5553;SDS011;2800;49.528;8.666;2022-12-18T16:03:55;119.28;;;65.90;;
5553;SDS011;2800;49.528;8.666;2022-12-18T16:06:24;126.93;;;75.90;;
5553;SDS011;2800;49.528;8.666;2022-12-18T16:08:49;121.25;;;74.00;;
5553;SDS011;2800;49.528;8.666;2022-12-18T16:11:20;111.97;;;65.70;;
5553;SDS011;2800;49.528;8.666;2022-12-18T16:14:03;101.18;;;57.58;;
5553;SDS011;2800;49.528;8.666;2022-12-18T16:16:52;90.78;;;54.00;;
5553;SDS011;2800;49.528;8.666;2022-12-18T16:19:22;101.47;;;59.08;;
5553;SDS011;2800;49.528;8.666;2022-12-18T16:21:48;105.43;;;63.13;;
5553;SDS011;2800;49.528;8.666;2022-12-18T16:24:16;106.10;;;65.47;;
5553;SDS011;2800;49.528;8.666;2022-12-18T16:26:49;109.05;;;67.90;;
5553;SDS011;2800;49.528;8.666;2022-12-18T16:29:16;118.47;;;67.50;;
5553;SDS011;2800;49.528;8.666;2022-12-18T16:31:42;99.88;;;62.78;;
5553;SDS011;2800;49.528;8.666;2022-12-18T16:34:21;108.13;;;62.90;;
5553;SDS011;2800;49.528;8.666;2022-12-18T16:36:48;106.47;;;62.40;;
5553;SDS011;2800;49.528;8.666;2022-12-18T16:39:14;112.18;;;65.50;;
5553;SDS011;2800;49.528;8.666;2022-12-18T16:41:40;113.10;;;66.43;;
5553;SDS011;2800;49.528;8.666;2022-12-18T16:44:06;107.60;;;65.03;;
5553;SDS011;2800;49.528;8.666;2022-12-18T16:46:31;103.23;;;60.40;;
5553;SDS011;2800;49.528;8.666;2022-12-18T16:49:00;98.40;;;58.70;;